createdAt,value
2024-02-04T00:05:22.029Z,84.24
2024-02-04T00:15:25.470Z,84.98
2024-02-04T00:25:30.501Z,85.15
2024-02-04T00:35:34.699Z,85.72
2024-02-04T00:45:37.858Z,85.74
2024-02-04T00:55:41.134Z,85.65
2024-02-04T01:05:44.305Z,85.41
2024-02-04T01:15:47.580Z,85.79
2024-02-04T01:25:50.837Z,86.00
2024-02-04T01:35:54.313Z,86.21
2024-02-04T01:45:59.169Z,86.14
2024-02-04T01:56:03.266Z,86.10
2024-02-04T02:06:07.095Z,86.48
2024-02-04T02:16:19.297Z,86.03
2024-02-04T02:26:23.728Z,86.54
2024-02-04T02:36:34.334Z,87.00
2024-02-04T02:46:38.008Z,87.23
2024-02-04T02:56:41.124Z,87.15
2024-02-04T03:06:44.255Z,87.36
2024-02-04T03:16:47.808Z,87.07
2024-02-04T03:26:51.554Z,87.25
2024-02-04T03:36:54.821Z,87.53
2024-02-04T03:46:58.577Z,88.17
2024-02-04T03:57:01.938Z,87.77
2024-02-04T04:07:05.479Z,85.75
2024-02-04T04:17:08.618Z,85.11
2024-02-04T04:27:11.816Z,85.86
2024-02-04T04:37:14.894Z,86.02
2024-02-04T04:47:18.202Z,85.64
2024-02-04T04:57:21.359Z,85.94
2024-02-04T05:07:24.614Z,86.24
2024-02-04T05:17:28.266Z,86.49
2024-02-04T05:27:31.597Z,86.50
2024-02-04T05:37:34.823Z,86.54
2024-02-04T05:47:38.219Z,86.69
2024-02-04T05:57:41.867Z,87.10
2024-02-04T06:07:45.273Z,87.04
2024-02-04T06:17:48.382Z,87.06
2024-02-04T06:27:51.797Z,87.25
2024-02-04T06:37:55.132Z,87.10
2024-02-04T06:47:58.731Z,85.73
2024-02-04T06:58:02.065Z,84.38
2024-02-04T07:08:05.396Z,84.52
2024-02-04T07:18:09.099Z,84.18
2024-02-04T07:28:12.551Z,82.61
2024-02-04T07:38:15.714Z,81.20
2024-02-04T07:48:20.791Z,81.15
2024-02-04T07:58:23.981Z,79.37
2024-02-04T08:08:27.081Z,79.14
2024-02-04T08:18:30.451Z,79.59
2024-02-04T08:28:33.624Z,80.00
2024-02-04T08:38:37.144Z,79.76
2024-02-04T08:48:40.430Z,79.82
2024-02-04T08:58:43.553Z,80.08
2024-02-04T09:08:46.864Z,80.72
2024-02-04T09:18:50.063Z,81.34
2024-02-04T09:28:53.316Z,81.40
2024-02-04T09:38:57.204Z,81.91
2024-02-04T09:49:02.328Z,82.74
2024-02-04T09:59:09.045Z,82.33
2024-02-04T10:09:12.241Z,82.54
2024-02-04T10:19:15.724Z,81.33
2024-02-04T10:29:19.872Z,80.61
2024-02-04T10:39:22.915Z,80.37
2024-02-04T10:49:28.268Z,78.51
2024-02-04T10:59:33.704Z,76.79
2024-02-04T11:09:38.171Z,76.65
2024-02-04T11:20:36.502Z,76.57
2024-02-04T11:30:40.207Z,75.13
2024-02-04T11:40:43.750Z,75.29
2024-02-04T11:50:54.277Z,76.38
2024-02-04T12:01:00.267Z,76.69
2024-02-04T12:11:04.385Z,76.18
2024-02-04T12:21:07.414Z,76.92
2024-02-04T12:31:21.459Z,78.86
2024-02-04T12:41:27.496Z,79.76
2024-02-04T12:51:34.957Z,79.16
2024-02-04T13:01:40.330Z,80.20
2024-02-04T13:11:49.517Z,79.87
2024-02-04T13:21:55.564Z,80.27
2024-02-04T13:32:02.415Z,80.81
2024-02-04T13:42:09.303Z,81.55
2024-02-04T13:52:12.656Z,82.45
2024-02-04T14:02:15.984Z,83.64
2024-02-04T14:12:22.185Z,83.73
2024-02-04T14:22:28.930Z,83.92
2024-02-04T14:32:32.471Z,84.39
2024-02-04T14:42:37.225Z,84.68
2024-02-04T14:52:41.716Z,83.45
2024-02-04T15:02:45.033Z,83.90
2024-02-04T15:12:48.625Z,84.47
2024-02-04T15:22:52.415Z,84.84
2024-02-04T15:32:56.173Z,85.13
2024-02-04T15:42:59.944Z,85.54
2024-02-04T15:53:03.975Z,85.60
2024-02-04T16:03:07.752Z,85.39
2024-02-04T16:13:11.986Z,85.81
2024-02-04T16:23:15.656Z,86.67
2024-02-04T16:33:18.779Z,86.54
2024-02-04T16:43:25.467Z,86.52
2024-02-04T16:53:29.378Z,86.67
2024-02-04T17:03:33.306Z,87.24
2024-02-04T17:13:37.498Z,87.17
2024-02-04T17:23:42.284Z,86.87
2024-02-04T17:33:48.726Z,86.98
2024-02-04T17:43:56.017Z,86.94
2024-02-04T17:54:01.053Z,87.18
2024-02-04T18:04:08.249Z,88.32
2024-02-04T18:14:11.483Z,89.26
2024-02-04T18:24:14.812Z,90.22
2024-02-04T18:34:18.100Z,89.93
2024-02-04T18:44:24.614Z,86.35
2024-02-04T18:54:30.401Z,86.06
2024-02-04T19:04:36.434Z,86.96
2024-02-04T19:14:46.703Z,87.24
2024-02-04T19:24:55.660Z,85.99
2024-02-04T19:34:59.348Z,85.32
2024-02-04T19:45:04.902Z,84.49
2024-02-04T19:55:08.958Z,83.41
2024-02-04T20:05:12.398Z,83.45
2024-02-04T20:15:16.274Z,83.57
2024-02-04T20:25:20.240Z,84.11
2024-02-04T20:35:26.299Z,84.73
2024-02-04T20:45:31.644Z,85.19
2024-02-04T20:55:37.751Z,85.21
2024-02-04T21:05:41.566Z,84.87
2024-02-04T21:15:44.945Z,84.15
2024-02-04T21:25:48.172Z,83.86
2024-02-04T21:35:52.133Z,84.54
2024-02-04T21:45:56.935Z,84.56
2024-02-04T21:56:00.060Z,84.65
2024-02-04T22:06:04.245Z,84.62
2024-02-04T22:16:07.468Z,85.46
2024-02-04T22:26:10.510Z,85.59
2024-02-04T22:36:14.751Z,85.72
2024-02-04T22:46:17.841Z,85.03
2024-02-04T22:56:20.968Z,84.68
2024-02-04T23:06:30.069Z,84.80
2024-02-04T23:16:34.463Z,84.89
2024-02-04T23:26:37.438Z,85.28
2024-02-04T23:36:40.629Z,84.96
2024-02-04T23:46:44.106Z,85.03
2024-02-04T23:56:47.320Z,85.45
